Time;durP1;ratioP1;P1;durP2;ratioP2;P2;SDS_P1;SDS_P2;PMS_P1;PMS_P2;Temp;Humidity;BMP_temperature;BMP_pressure;BME280_temperature;BME280_humidity;BME280_pressure;Samples;Min_cycle;Max_cycle;Signal;HPM_P1;HPM_P2
2022/11/29 16:03:34;;;;;;;;;44.00;37.25;;;;;7.13;100.00;101834.34;5012080;28;45320;-79
2022/11/29 16:06:06;;;;;;;;;48.75;39.25;;;;;7.23;100.00;101834.59;5011966;28;45264;-78
2022/11/29 16:08:37;;;;;;;;;42.75;39.00;;;;;7.34;100.00;101834.75;5010869;28;45311;-79
2022/11/29 16:11:05;;;;;;;;;47.00;38.75;;;;;7.40;100.00;101826.22;5015125;28;45402;-79
2022/11/29 16:13:38;;;;;;;;;41.00;30.00;;;;;7.51;100.00;101829.09;5009080;28;46229;-78
2022/11/29 16:16:04;;;;;;;;;42.67;34.00;;;;;7.60;100.00;101844.69;5013574;28;45450;-79
2022/11/29 16:18:29;;;;;;;;;36.67;30.00;;;;;7.65;100.00;101847.97;5005971;28;45399;-79
2022/11/29 16:20:59;;;;;;;;;33.67;31.00;;;;;7.73;100.00;101844.75;5012278;28;45386;-77
2022/11/29 16:23:36;;;;;;;;;38.25;34.25;;;;;7.76;100.00;101861.63;5011009;28;45497;-78
2022/11/29 16:26:27;;;;;;;;;46.00;38.33;;;;;7.79;100.00;101856.03;5018774;28;45400;-79
2022/11/29 16:28:57;;;;;;;;;45.75;37.00;;;;;7.81;100.00;101859.50;5009660;28;45288;-78
2022/11/29 16:31:30;;;;;;;;;40.67;36.00;;;;;7.86;100.00;101858.31;5010415;28;45419;-77
2022/11/29 16:33:56;;;;;;;;;45.67;37.00;;;;;7.94;100.00;101864.94;5008081;28;46772;-79
2022/11/29 16:36:27;;;;;;;;;35.33;31.33;;;;;7.96;100.00;101865.72;5010402;28;45439;-79
2022/11/29 16:38:59;;;;;;;;;44.33;39.00;;;;;7.95;100.00;101852.28;5005508;28;44856;-78
2022/11/29 16:41:33;;;;;;;;;38.33;34.00;;;;;7.96;100.00;101863.00;5012746;28;45424;-79
2022/11/29 16:44:02;;;;;;;;;44.67;36.33;;;;;7.95;100.00;101860.41;5012837;28;46244;-79
2022/11/29 16:46:34;;;;;;;;;83.00;63.00;;;;;7.99;100.00;101862.78;5004570;28;45253;-78
2022/11/29 16:49:02;;;;;;;;;49.50;40.50;;;;;7.96;100.00;101867.56;5001130;28;45281;-78
2022/11/29 16:51:47;;;;;;;;;41.67;36.00;;;;;7.99;100.00;101867.31;5010978;28;45320;-79
2022/11/29 16:54:33;;;;;;;;;64.25;50.50;;;;;7.99;100.00;101870.91;5016053;28;45883;-78
2022/11/29 16:57:03;;;;;;;;;49.00;37.75;;;;;7.95;100.00;101866.69;5010731;28;45363;-78
2022/11/29 16:59:30;;;;;;;;;50.75;39.75;;;;;7.97;100.00;101871.97;5011903;28;45410;-79
2022/11/29 17:01:56;;;;;;;;;45.25;39.00;;;;;7.98;100.00;101871.88;5005932;28;45365;-80
2022/11/29 17:04:21;;;;;;;;;47.25;39.25;;;;;8.04;100.00;101866.03;5030883;28;45439;-79
2022/11/29 17:06:47;;;;;;;;;44.00;40.50;;;;;8.01;100.00;101881.63;5037072;28;45225;-77
2022/11/29 17:09:25;;;;;;;;;56.25;42.75;;;;;7.95;100.00;101869.38;5030399;28;45385;-78
2022/11/29 17:11:50;;;;;;;;;50.00;39.25;;;;;7.95;100.00;101879.34;5025121;28;45403;-78
2022/11/29 17:14:16;;;;;;;;;49.50;39.25;;;;;7.89;100.00;101879.75;5017077;28;45567;-80
2022/11/29 17:16:41;;;;;;;;;44.25;36.50;;;;;7.90;100.00;101876.06;5022902;28;45431;-80
2022/11/29 17:19:11;;;;;;;;;42.25;35.75;;;;;7.87;100.00;101869.03;5013082;28;45382;-78
2022/11/29 17:21:36;;;;;;;;;38.67;34.67;;;;;7.88;100.00;101880.72;5023338;28;45399;-77
2022/11/29 17:24:01;;;;;;;;;47.75;38.50;;;;;7.88;100.00;101886.16;5017249;28;45465;-77
2022/11/29 17:26:27;;;;;;;;;41.75;36.00;;;;;7.91;100.00;101885.91;5012410;28;45437;-77
2022/11/29 17:28:52;;;;;;;;;42.67;35.67;;;;;7.98;100.00;101889.94;5013818;28;45298;-76
2022/11/29 17:31:20;;;;;;;;;40.33;34.33;;;;;8.02;100.00;101895.06;5013621;28;45447;-78
2022/11/29 17:33:46;;;;;;;;;45.50;38.25;;;;;8.04;100.00;101892.22;5010363;28;45351;-79
2022/11/29 17:36:15;;;;;;;;;48.67;36.00;;;;;8.12;100.00;101906.97;5020983;28;45247;-79
2022/11/29 17:38:42;;;;;;;;;48.75;37.00;;;;;8.10;100.00;101895.41;5014570;28;45437;-77
2022/11/29 17:41:08;;;;;;;;;54.75;40.25;;;;;8.17;100.00;101903.97;5023034;28;45219;-77
2022/11/29 17:43:35;;;;;;;;;51.00;36.75;;;;;8.19;100.00;101904.72;5011591;28;46328;-77
2022/11/29 17:46:07;;;;;;;;;40.67;32.33;;;;;8.26;100.00;101906.03;5020482;28;45328;-78
2022/11/29 17:48:32;;;;;;;;;48.33;39.33;;;;;8.27;100.00;101910.47;5018841;28;45436;-78
2022/11/29 17:50:58;;;;;;;;;48.25;39.25;;;;;8.26;100.00;101907.88;5015550;28;45252;-77
2022/11/29 17:53:24;;;;;;;;;48.50;38.75;;;;;8.29;100.00;101908.53;5011753;28;45312;-77
2022/11/29 17:55:49;;;;;;;;;40.75;35.00;;;;;8.34;100.00;101917.25;5020911;28;45342;-77
2022/11/29 17:58:14;;;;;;;;;43.25;35.75;;;;;8.33;100.00;101922.78;5017127;28;45257;-77
2022/11/29 18:00:40;;;;;;;;;37.33;36.00;;;;;8.30;100.00;101913.00;5016990;28;45453;-77
2022/11/29 18:03:05;;;;;;;;;56.00;39.00;;;;;8.34;100.00;101922.66;5010620;28;45449;-77
2022/11/29 18:05:30;;;;;;;;;44.67;37.33;;;;;8.40;100.00;101926.81;5019899;28;45427;-78
2022/11/29 18:07:58;;;;;;;;;45.67;36.00;;;;;8.42;100.00;101928.41;5017137;28;45224;-76
2022/11/29 18:10:26;;;;;;;;;31.00;28.67;;;;;8.42;100.00;101922.13;5016980;28;45550;-77
2022/11/29 18:12:51;;;;;;;;;40.00;31.33;;;;;8.39;100.00;101914.22;5012847;28;46838;-79
2022/11/29 18:15:16;;;;;;;;;44.67;35.67;;;;;8.41;100.00;101937.50;5020727;28;45503;-79
2022/11/29 18:17:42;;;;;;;;;43.00;36.00;;;;;8.42;100.00;101931.13;5010755;28;45509;-79
2022/11/29 18:20:07;;;;;;;;;43.67;36.00;;;;;8.45;100.00;101936.34;5020590;28;45347;-79
2022/11/29 18:22:33;;;;;;;;;52.50;40.25;;;;;8.37;100.00;101933.28;5009592;28;46410;-79
2022/11/29 18:24:58;;;;;;;;;53.67;38.00;;;;;8.38;100.00;101937.75;5017288;28;45529;-79
2022/11/29 18:27:23;;;;;;;;;45.00;38.00;;;;;8.28;100.00;101946.53;5009623;28;45417;-79
2022/11/29 18:29:49;;;;;;;;;52.00;37.00;;;;;8.29;100.00;101934.75;5020012;28;45229;-78
2022/11/29 18:32:14;;;;;;;;;42.33;35.00;;;;;8.35;100.00;101935.22;5007400;28;45405;-78
2022/11/29 18:34:39;;;;;;;;;46.67;36.67;;;;;8.39;100.00;101933.19;5011762;28;45327;-79
2022/11/29 18:37:05;;;;;;;;;40.00;36.33;;;;;8.46;100.00;101937.22;5017908;28;46356;-79
2022/11/29 18:39:30;;;;;;;;;46.67;36.67;;;;;8.46;100.00;101942.63;5018044;28;45431;-78
2022/11/29 18:41:56;;;;;;;;;49.33;34.33;;;;;8.48;100.00;101940.66;5014222;28;46791;-79
2022/11/29 18:44:27;;;;;;;;;46.33;37.00;;;;;8.48;100.00;101941.53;5014124;28;45370;-79
2022/11/29 18:46:53;;;;;;;;;51.67;39.33;;;;;8.37;100.00;101927.88;5013337;28;44865;-79
2022/11/29 18:49:19;;;;;;;;;50.25;38.25;;;;;8.40;100.00;101935.75;5021487;28;45344;-79
2022/11/29 18:51:45;;;;;;;;;46.67;39.67;;;;;8.38;100.00;101945.88;5023091;28;47118;-79
2022/11/29 18:54:11;;;;;;;;;52.50;39.75;;;;;8.31;100.00;101941.84;5015098;28;45414;-79
2022/11/29 18:56:37;;;;;;;;;55.25;41.75;;;;;8.17;100.00;101947.28;5021257;28;45442;-79
2022/11/29 18:59:09;;;;;;;;;49.00;38.00;;;;;8.18;100.00;101939.03;5018818;28;45411;-79
2022/11/29 19:01:39;;;;;;;;;40.00;33.33;;;;;8.26;100.00;101941.22;5021194;28;48579;-79
2022/11/29 19:04:06;;;;;;;;;55.50;39.25;;;;;8.26;100.00;101940.34;5015442;28;45492;-80
2022/11/29 19:06:33;;;;;;;;;48.50;42.00;;;;;8.11;100.00;101939.56;5018995;28;45458;-79
2022/11/29 19:08:58;;;;;;;;;44.67;35.00;;;;;8.07;100.00;101949.75;5020042;28;45424;-78
2022/11/29 19:11:26;;;;;;;;;44.00;36.00;;;;;8.15;100.00;101954.63;5016092;28;45613;-78
2022/11/29 19:14:03;;;;;;;;;46.00;37.67;;;;;8.16;100.00;101951.84;5008899;28;45598;-77
2022/11/29 19:16:32;;;;;;;;;48.67;37.33;;;;;8.29;100.00;101956.41;5016852;28;45542;-79
2022/11/29 19:18:59;;;;;;;;;48.33;39.00;;;;;8.31;100.00;101963.50;5013578;28;45319;-80
2022/11/29 19:21:26;;;;;;;;;50.67;38.67;;;;;8.31;100.00;101955.38;5012222;28;45697;-78
2022/11/29 19:23:59;;;;;;;;;51.67;39.33;;;;;8.27;100.00;101959.22;5013539;28;45519;-78
2022/11/29 19:26:28;;;;;;;;;43.33;37.00;;;;;8.25;100.00;101972.00;5001869;28;45363;-79
2022/11/29 19:28:54;;;;;;;;;45.33;36.33;;;;;8.12;100.00;101966.53;5008821;28;45430;-80
2022/11/29 19:31:23;;;;;;;;;57.00;33.67;;;;;8.20;100.00;101966.00;5016685;28;46424;-79
2022/11/29 19:33:51;;;;;;;;;48.33;39.33;;;;;8.15;100.00;101965.47;5011587;28;45246;-80
2022/11/29 19:36:20;;;;;;;;;33.00;31.67;;;;;7.99;100.00;101953.94;5007613;28;45249;-80
2022/11/29 19:38:46;;;;;;;;;55.50;42.00;;;;;7.88;100.00;101972.72;5015173;28;45755;-79
2022/11/29 19:41:20;;;;;;;;;50.67;39.00;;;;;7.93;100.00;101978.69;5018790;28;47329;-80
2022/11/29 19:43:46;;;;;;;;;37.33;29.67;;;;;7.92;100.00;101958.00;5008208;28;45652;-80
2022/11/29 19:46:24;;;;;;;;;43.33;33.00;;;;;8.01;100.00;101960.13;5018393;28;45469;-78
2022/11/29 19:48:54;;;;;;;;;38.67;35.00;;;;;8.11;100.00;101966.63;5014804;28;45307;-79
2022/11/29 19:51:20;;;;;;;;;38.33;34.67;;;;;8.12;100.00;101961.13;5003472;28;45523;-80
2022/11/29 19:53:46;;;;;;;;;41.67;34.67;;;;;8.12;100.00;101963.81;5017021;28;45450;-80
2022/11/29 19:56:14;;;;;;;;;34.67;32.00;;;;;8.16;100.00;101964.50;5018715;28;45422;-80
2022/11/29 19:58:40;;;;;;;;;39.33;30.67;;;;;8.01;100.00;101960.13;5017672;28;45422;-80
2022/11/29 20:01:17;;;;;;;;;52.33;36.67;;;;;7.87;100.00;101968.28;5018151;28;45513;-80
2022/11/29 20:03:43;;;;;;;;;38.67;31.33;;;;;7.85;100.00;101964.81;5013264;28;45387;-81
2022/11/29 20:06:10;;;;;;;;;41.67;33.33;;;;;7.92;100.00;101963.41;5004263;28;45326;-80
2022/11/29 20:08:36;;;;;;;;;40.67;32.67;;;;;7.97;100.00;101963.97;5004824;28;45439;-80
2022/11/29 20:11:14;;;;;;;;;34.00;30.67;;;;;7.94;100.00;101962.38;5010799;28;45752;-80
2022/11/29 20:13:41;;;;;;;;;39.00;30.00;;;;;7.90;100.00;101950.00;5015654;28;45355;-79
2022/11/29 20:16:12;;;;;;;;;32.67;30.33;;;;;8.00;100.00;101966.50;5017482;28;45404;-80
2022/11/29 20:18:39;;;;;;;;;44.33;34.33;;;;;7.90;100.00;101970.75;5006522;28;45419;-81
2022/11/29 20:21:09;;;;;;;;;37.00;29.00;;;;;7.82;100.00;101969.44;5014935;28;45225;-80
2022/11/29 20:23:35;;;;;;;;;37.33;27.00;;;;;7.87;100.00;101973.69;5008365;28;45432;-81
2022/11/29 20:26:00;;;;;;;;;33.67;29.00;;;;;7.87;100.00;101966.44;5013297;28;45383;-80
2022/11/29 20:28:26;;;;;;;;;29.00;28.67;;;;;7.88;100.00;101972.72;5014625;28;45443;-82
2022/11/29 20:30:51;;;;;;;;;37.33;32.00;;;;;7.86;100.00;101975.53;5013452;28;47028;-82
2022/11/29 20:33:21;;;;;;;;;37.33;28.00;;;;;7.80;100.00;101979.50;5016500;28;45339;-79
2022/11/29 20:35:59;;;;;;;;;38.00;32.67;;;;;7.80;100.00;101982.22;5014631;28;45619;-81
2022/11/29 20:38:47;;;;;;;;;36.33;30.33;;;;;7.77;100.00;101993.22;5015645;28;45476;-77
2022/11/29 20:41:20;;;;;;;;;35.00;29.67;;;;;7.74;100.00;101988.00;5009237;28;45452;-81
2022/11/29 20:43:59;;;;;;;;;32.00;28.33;;;;;7.73;100.00;101991.72;5017370;28;45298;-81
2022/11/29 20:46:25;;;;;;;;;40.67;30.00;;;;;7.79;100.00;101991.31;5036093;28;45421;-79
2022/11/29 20:48:52;;;;;;;;;37.00;29.67;;;;;7.84;100.00;101999.09;5022218;28;45251;-81
2022/11/29 20:51:25;;;;;;;;;36.00;29.00;;;;;7.79;100.00;101988.59;5018540;28;45456;-80
2022/11/29 20:53:50;;;;;;;;;42.00;32.67;;;;;7.67;100.00;101989.38;5017559;28;45446;-81
2022/11/29 20:56:15;;;;;;;;;33.00;26.67;;;;;7.65;100.00;101996.75;5019804;28;45526;-81
2022/11/29 20:58:41;;;;;;;;;41.00;26.33;;;;;7.65;100.00;102004.00;5016954;28;45323;-81
2022/11/29 21:01:06;;;;;;;;;38.00;28.33;;;;;7.66;100.00;102006.59;5008464;28;47857;-79
2022/11/29 21:03:32;;;;;;;;;54.50;44.25;;;;;7.67;100.00;102013.72;5008497;28;45629;-81
2022/11/29 21:06:01;;;;;;;;;33.00;27.67;;;;;7.75;100.00;102014.09;5017175;28;46092;-80
2022/11/29 21:08:27;;;;;;;;;30.00;25.33;;;;;7.78;100.00;102011.19;5022162;28;45571;-81
2022/11/29 21:10:53;;;;;;;;;49.33;31.00;;;;;7.84;100.00;102007.22;5021974;28;45368;-80
2022/11/29 21:13:20;;;;;;;;;31.67;28.67;;;;;7.91;100.00;102018.50;5017106;28;45181;-80
2022/11/29 21:15:46;;;;;;;;;35.33;29.33;;;;;7.88;100.00;102002.50;5017603;28;45265;-80
2022/11/29 21:18:26;;;;;;;;;32.00;32.00;;;;;7.95;100.00;102011.94;5015621;28;45458;-80
2022/11/29 21:21:03;;;;;;;;;35.67;31.67;;;;;7.91;100.00;102004.97;5034677;28;47930;-80
2022/11/29 21:23:38;;;;;;;;;40.67;35.00;;;;;7.96;100.00;102014.56;5013553;28;45297;-80
2022/11/29 21:26:14;;;;;;;;;29.67;25.67;;;;;7.88;100.00;102007.91;5023291;28;45496;-80
2022/11/29 21:28:53;;;;;;;;;30.33;28.33;;;;;7.90;100.00;102014.06;5017949;28;45550;-80
2022/11/29 21:31:18;;;;;;;;;42.67;35.67;;;;;7.88;100.00;102016.03;5014971;28;45467;-80
2022/11/29 21:33:44;;;;;;;;;32.00;32.00;;;;;7.90;100.00;102011.34;5013013;28;46138;-80
2022/11/29 21:36:10;;;;;;;;;33.33;28.67;;;;;7.94;100.00;102015.63;5013938;28;45250;-80
2022/11/29 21:38:36;;;;;;;;;29.33;25.67;;;;;7.86;100.00;102008.00;5022611;28;45539;-81
2022/11/29 21:41:01;;;;;;;;;30.67;26.00;;;;;7.82;100.00;102023.53;5013995;28;45496;-81
2022/11/29 21:43:26;;;;;;;;;30.67;26.67;;;;;7.63;100.00;102030.25;5016340;28;45413;-79
2022/11/29 21:45:52;;;;;;;;;32.33;24.00;;;;;7.56;100.00;102026.22;5016191;28;45355;-81
2022/11/29 21:48:36;;;;;;;;;29.33;26.33;;;;;7.48;100.00;102033.94;5008944;28;45474;-81
2022/11/29 21:51:06;;;;;;;;;28.00;24.67;;;;;7.58;100.00;102030.56;5016486;28;45648;-80
2022/11/29 21:53:33;;;;;;;;;32.67;24.67;;;;;7.68;100.00;102026.28;5016599;28;45442;-81
2022/11/29 21:56:00;;;;;;;;;22.50;18.50;;;;;7.73;100.00;102024.16;5019854;28;45433;-81
2022/11/29 21:58:28;;;;;;;;;26.67;21.33;;;;;7.66;100.00;102022.81;5012451;28;45416;-81
2022/11/29 22:00:53;;;;;;;;;27.00;25.33;;;;;7.49;100.00;102020.31;5021209;28;47469;-81
2022/11/29 22:03:19;;;;;;;;;29.67;25.67;;;;;7.39;100.00;102022.72;5016006;28;45292;-80
2022/11/29 22:05:44;;;;;;;;;27.00;21.00;;;;;7.35;100.00;102017.63;5015174;28;45340;-80
2022/11/29 22:08:09;;;;;;;;;26.33;24.00;;;;;7.49;100.00;102020.31;5010655;28;45707;-82
2022/11/29 22:10:34;;;;;;;;;33.67;24.33;;;;;7.53;100.00;102021.84;5009267;28;51742;-81
2022/11/29 22:13:00;;;;;;;;;29.67;23.00;;;;;7.58;100.00;102025.16;5020075;28;45375;-81
2022/11/29 22:15:26;;;;;;;;;32.33;25.00;;;;;7.57;100.00;102012.59;5020860;28;45176;-81
2022/11/29 22:17:52;;;;;;;;;29.00;23.33;;;;;7.56;100.00;102010.84;5021021;28;45455;-82
2022/11/29 22:20:18;;;;;;;;;28.67;24.00;;;;;7.69;100.00;102038.84;5020503;28;45477;-80
2022/11/29 22:22:44;;;;;;;;;27.33;25.00;;;;;7.67;100.00;102029.94;5017662;28;45813;-82
2022/11/29 22:25:09;;;;;;;;;31.67;28.67;;;;;7.67;100.00;102035.34;5019231;28;45865;-82
2022/11/29 22:27:35;;;;;;;;;29.00;21.67;;;;;7.65;100.00;102031.91;5016192;28;45510;-80
2022/11/29 22:30:00;;;;;;;;;26.33;24.33;;;;;7.74;100.00;102036.69;5017448;28;46969;-81
2022/11/29 22:32:26;;;;;;;;;32.00;28.67;;;;;7.73;100.00;102032.28;5018721;28;45449;-81
2022/11/29 22:34:51;;;;;;;;;34.33;25.00;;;;;7.64;100.00;102035.56;5021463;28;45296;-82
2022/11/29 22:37:16;;;;;;;;;32.67;26.67;;;;;7.50;100.00;102030.19;5018041;28;45392;-81
2022/11/29 22:39:41;;;;;;;;;31.00;25.67;;;;;7.47;100.00;102038.47;5003251;28;47528;-81
2022/11/29 22:42:07;;;;;;;;;29.00;23.67;;;;;7.46;100.00;102028.63;5018116;28;48666;-81
2022/11/29 22:44:32;;;;;;;;;31.00;26.33;;;;;7.53;100.00;102029.97;5015046;28;45507;-81
2022/11/29 22:46:57;;;;;;;;;28.67;23.33;;;;;7.69;100.00;102041.53;5005854;28;45418;-80
2022/11/29 22:49:23;;;;;;;;;26.00;24.00;;;;;7.72;100.00;102027.84;5017625;28;45551;-80
2022/11/29 22:51:48;;;;;;;;;30.00;24.67;;;;;7.77;100.00;102035.66;5021209;28;45482;-80
2022/11/29 22:54:15;;;;;;;;;29.00;24.00;;;;;7.77;100.00;102024.81;5024687;28;45475;-81
2022/11/29 22:56:42;;;;;;;;;31.00;28.67;;;;;7.79;100.00;102033.72;5020140;28;45492;-81
2022/11/29 22:59:08;;;;;;;;;26.67;24.33;;;;;7.78;100.00;102031.97;5018244;28;47372;-80
2022/11/29 23:01:36;;;;;;;;;29.33;21.67;;;;;7.76;100.00;102033.91;5021405;28;45417;-80
2022/11/29 23:04:04;;;;;;;;;31.00;24.33;;;;;7.71;100.00;102026.09;5017549;28;45402;-80
2022/11/29 23:06:31;;;;;;;;;25.00;20.00;;;;;7.76;100.00;102029.38;5020235;28;45513;-81
2022/11/29 23:09:02;;;;;;;;;28.67;20.33;;;;;7.77;100.00;102024.81;5016584;28;46800;-81
2022/11/29 23:11:29;;;;;;;;;22.33;20.67;;;;;7.80;100.00;102025.50;5018855;28;45482;-80
2022/11/29 23:13:55;;;;;;;;;24.67;20.67;;;;;7.79;100.00;102031.00;5004034;28;45451;-80
2022/11/29 23:16:26;;;;;;;;;25.33;21.00;;;;;7.77;100.00;102036.50;5022182;28;45451;-81
2022/11/29 23:18:53;;;;;;;;;23.33;22.00;;;;;7.79;100.00;102034.59;5015530;28;45252;-80
2022/11/29 23:21:30;;;;;;;;;28.67;24.67;;;;;7.78;100.00;102037.38;5019783;28;45416;-79
2022/11/29 23:23:58;;;;;;;;;24.33;22.00;;;;;7.77;100.00;102030.22;5004489;28;45472;-81
2022/11/29 23:26:28;;;;;;;;;27.67;19.00;;;;;7.76;100.00;102040.19;5017865;28;45505;-80
2022/11/29 23:28:54;;;;;;;;;24.67;19.67;;;;;7.79;100.00;102040.00;5014324;28;46281;-80
2022/11/29 23:31:20;;;;;;;;;30.33;23.33;;;;;7.81;100.00;102032.66;5021775;28;45502;-80
2022/11/29 23:33:46;;;;;;;;;29.67;24.33;;;;;7.83;100.00;102032.53;5013524;28;45493;-80
2022/11/29 23:36:13;;;;;;;;;32.67;24.33;;;;;7.77;100.00;102036.50;5015936;28;45343;-79
2022/11/29 23:38:38;;;;;;;;;33.33;28.00;;;;;7.69;100.00;102032.56;5007347;28;45500;-80
2022/11/29 23:41:05;;;;;;;;;30.67;27.33;;;;;7.57;100.00;102026.13;5014964;28;45478;-80
2022/11/29 23:43:32;;;;;;;;;25.00;22.67;;;;;7.63;100.00;102035.66;5014944;28;45483;-80
2022/11/29 23:45:58;;;;;;;;;29.33;25.00;;;;;7.66;100.00;102022.81;5010814;28;45841;-80
2022/11/29 23:48:24;;;;;;;;;29.33;25.67;;;;;7.68;100.00;102031.69;5015910;28;46686;-81
2022/11/29 23:50:49;;;;;;;;;36.00;29.67;;;;;7.60;100.00;102028.59;5020682;28;45367;-80
2022/11/29 23:53:17;;;;;;;;;35.67;26.00;;;;;7.63;100.00;102028.41;5011787;28;45433;-80
2022/11/29 23:55:43;;;;;;;;;35.00;33.67;;;;;7.57;100.00;102036.94;5020892;28;45889;-80
2022/11/29 23:58:09;;;;;;;;;26.67;24.00;;;;;7.59;100.00;102024.19;5004413;28;47865;-80
